sensor_id;sensor_type;location;lat;lon;timestamp;pressure;altitude;pressure_sealevel;temperature;humidity
7170;BME280;3626;42.656;23.312;2022-08-19T00:00:07;94317.09;;;20.86;69.77
7170;BME280;3626;42.656;23.312;2022-08-19T00:00:14;94319.72;;;20.86;69.85
7170;BME280;3626;42.656;23.312;2022-08-19T00:00:21;94323.38;;;20.85;69.83
7170;BME280;3626;42.656;23.312;2022-08-19T00:00:28;94316.53;;;20.84;69.89
7170;BME280;3626;42.656;23.312;2022-08-19T00:00:35;94330.44;;;20.85;69.71
7170;BME280;3626;42.656;23.312;2022-08-19T00:00:42;94322.56;;;20.85;69.82
7170;BME280;3626;42.656;23.312;2022-08-19T00:00:49;94321.00;;;20.84;69.75
7170;BME280;3626;42.656;23.312;2022-08-19T00:00:55;94327.03;;;20.84;69.75
7170;BME280;3626;42.656;23.312;2022-08-19T00:01:01;94319.16;;;20.84;69.65
7170;BME280;3626;42.656;23.312;2022-08-19T00:01:07;94321.00;;;20.84;69.71
7170;BME280;3626;42.656;23.312;2022-08-19T00:01:14;94328.84;;;20.84;69.79
7170;BME280;3626;42.656;23.312;2022-08-19T00:01:21;94325.44;;;20.83;69.68
7170;BME280;3626;42.656;23.312;2022-08-19T00:01:28;94320.19;;;20.83;69.65
7170;BME280;3626;42.656;23.312;2022-08-19T00:01:37;94318.63;;;20.82;69.52
7170;BME280;3626;42.656;23.312;2022-08-19T00:01:46;94321.25;;;20.82;69.57
7170;BME280;3626;42.656;23.312;2022-08-19T00:01:54;94320.44;;;20.82;69.68
7170;BME280;3626;42.656;23.312;2022-08-19T00:02:02;94322.25;;;20.81;69.57
7170;BME280;3626;42.656;23.312;2022-08-19T00:02:08;94330.13;;;20.81;69.55
7170;BME280;3626;42.656;23.312;2022-08-19T00:02:16;94320.66;;;20.80;69.54
7170;BME280;3626;42.656;23.312;2022-08-19T00:02:23;94325.91;;;20.80;69.58
7170;BME280;3626;42.656;23.312;2022-08-19T00:02:31;94324.31;;;20.79;69.59
7170;BME280;3626;42.656;23.312;2022-08-19T00:02:38;94325.13;;;20.80;69.55
7170;BME280;3626;42.656;23.312;2022-08-19T00:02:45;94327.75;;;20.80;69.71
7170;BME280;3626;42.656;23.312;2022-08-19T00:02:51;94325.91;;;20.80;69.67
7170;BME280;3626;42.656;23.312;2022-08-19T00:02:59;94325.13;;;20.80;69.72
7170;BME280;3626;42.656;23.312;2022-08-19T00:03:05;94321.69;;;20.79;69.70
7170;BME280;3626;42.656;23.312;2022-08-19T00:03:13;94328.53;;;20.80;69.85
7170;BME280;3626;42.656;23.312;2022-08-19T00:03:19;94324.31;;;20.79;69.88
7170;BME280;3626;42.656;23.312;2022-08-19T00:03:26;94325.13;;;20.80;69.88
7170;BME280;3626;42.656;23.312;2022-08-19T00:03:34;94317.50;;;20.78;69.83
7170;BME280;3626;42.656;23.312;2022-08-19T00:03:41;94327.19;;;20.78;69.83
7170;BME280;3626;42.656;23.312;2022-08-19T00:03:47;94329.81;;;20.78;69.89
7170;BME280;3626;42.656;23.312;2022-08-19T00:03:58;94321.94;;;20.78;69.87
7170;BME280;3626;42.656;23.312;2022-08-19T00:04:08;94324.78;;;20.76;69.82
7170;BME280;3626;42.656;23.312;2022-08-19T00:04:17;94320.34;;;20.77;69.83
7170;BME280;3626;42.656;23.312;2022-08-19T00:04:27;94328.19;;;20.77;69.76
7170;BME280;3626;42.656;23.312;2022-08-19T00:04:36;94322.41;;;20.75;69.70
7170;BME280;3626;42.656;23.312;2022-08-19T00:04:44;94328.44;;;20.75;69.56
7170;BME280;3626;42.656;23.312;2022-08-19T00:04:53;94327.66;;;20.75;69.56
7170;BME280;3626;42.656;23.312;2022-08-19T00:04:59;94325.81;;;20.75;69.52
7170;BME280;3626;42.656;23.312;2022-08-19T00:05:10;94327.66;;;20.75;69.57
7170;BME280;3626;42.656;23.312;2022-08-19T00:05:17;94324.25;;;20.74;69.50
7170;BME280;3626;42.656;23.312;2022-08-19T00:05:23;94324.25;;;20.74;69.52
7170;BME280;3626;42.656;23.312;2022-08-19T00:05:30;94330.28;;;20.75;69.47
7170;BME280;3626;42.656;23.312;2022-08-19T00:05:37;94326.06;;;20.74;69.68
7170;BME280;3626;42.656;23.312;2022-08-19T00:05:44;94326.28;;;20.72;69.51
7170;BME280;3626;42.656;23.312;2022-08-19T00:05:54;94328.91;;;20.72;69.56
7170;BME280;3626;42.656;23.312;2022-08-19T00:05:59;94325.28;;;20.73;69.61
7170;BME280;3626;42.656;23.312;2022-08-19T00:06:08;94329.50;;;20.74;69.52
7170;BME280;3626;42.656;23.312;2022-08-19T00:06:16;94324.47;;;20.72;69.47
7170;BME280;3626;42.656;23.312;2022-08-19T00:06:24;94327.91;;;20.73;69.46
7170;BME280;3626;42.656;23.312;2022-08-19T00:06:34;94323.66;;;20.72;69.33
7170;BME280;3626;42.656;23.312;2022-08-19T00:06:43;94324.47;;;20.72;69.09
7170;BME280;3626;42.656;23.312;2022-08-19T00:06:51;94322.09;;;20.71;69.12
7170;BME280;3626;42.656;23.312;2022-08-19T00:06:59;94327.09;;;20.72;68.90
7170;BME280;3626;42.656;23.312;2022-08-19T00:07:05;94328.91;;;20.72;68.96
7170;BME280;3626;42.656;23.312;2022-08-19T00:07:14;94322.09;;;20.71;68.91
7170;BME280;3626;42.656;23.312;2022-08-19T00:07:22;94323.13;;;20.70;68.93
7170;BME280;3626;42.656;23.312;2022-08-19T00:07:29;94325.75;;;20.70;68.79
7170;BME280;3626;42.656;23.312;2022-08-19T00:07:36;94317.88;;;20.70;68.74
7170;BME280;3626;42.656;23.312;2022-08-19T00:07:45;94327.34;;;20.71;68.63
7170;BME280;3626;42.656;23.312;2022-08-19T00:07:53;94321.53;;;20.69;68.59
7170;BME280;3626;42.656;23.312;2022-08-19T00:08:00;94319.72;;;20.69;68.58
7170;BME280;3626;42.656;23.312;2022-08-19T00:08:08;94321.75;;;20.67;68.42
7170;BME280;3626;42.656;23.312;2022-08-19T00:08:15;94324.38;;;20.67;68.35
7170;BME280;3626;42.656;23.312;2022-08-19T00:08:21;94319.94;;;20.68;68.39
7170;BME280;3626;42.656;23.312;2022-08-19T00:08:29;94325.97;;;20.68;68.19
7170;BME280;3626;42.656;23.312;2022-08-19T00:08:36;94325.41;;;20.66;68.35
7170;BME280;3626;42.656;23.312;2022-08-19T00:08:43;94317.56;;;20.66;68.25
7170;BME280;3626;42.656;23.312;2022-08-19T00:08:51;94325.66;;;20.65;68.33
7170;BME280;3626;42.656;23.312;2022-08-19T00:09:00;94324.06;;;20.64;68.24
7170;BME280;3626;42.656;23.312;2022-08-19T00:09:13;94323.03;;;20.65;68.23
7170;BME280;3626;42.656;23.312;2022-08-19T00:09:22;94318.59;;;20.65;68.13
7170;BME280;3626;42.656;23.312;2022-08-19T00:09:29;94321.44;;;20.64;68.01
7170;BME280;3626;42.656;23.312;2022-08-19T00:09:37;94316.19;;;20.64;68.05
7170;BME280;3626;42.656;23.312;2022-08-19T00:09:43;94319.06;;;20.62;67.98
7170;BME280;3626;42.656;23.312;2022-08-19T00:09:50;94320.63;;;20.63;68.02
7170;BME280;3626;42.656;23.312;2022-08-19T00:09:57;94319.06;;;20.62;67.87
7170;BME280;3626;42.656;23.312;2022-08-19T00:10:04;94319.84;;;20.63;67.94
7170;BME280;3626;42.656;23.312;2022-08-19T00:10:12;94318.25;;;20.62;67.88
7170;BME280;3626;42.656;23.312;2022-08-19T00:10:19;94321.91;;;20.61;67.79
7170;BME280;3626;42.656;23.312;2022-08-19T00:10:28;94316.69;;;20.61;67.79
7170;BME280;3626;42.656;23.312;2022-08-19T00:10:35;94315.88;;;20.60;67.81
7170;BME280;3626;42.656;23.312;2022-08-19T00:10:42;94316.69;;;20.61;67.74
7170;BME280;3626;42.656;23.312;2022-08-19T00:10:51;94319.31;;;20.61;67.69
7170;BME280;3626;42.656;23.312;2022-08-19T00:11:00;94328.75;;;20.62;67.70
7170;BME280;3626;42.656;23.312;2022-08-19T00:11:10;94321.13;;;20.60;67.88
7170;BME280;3626;42.656;23.312;2022-08-19T00:11:18;94311.44;;;20.61;67.89
7170;BME280;3626;42.656;23.312;2022-08-19T00:11:26;94315.88;;;20.60;67.98
7170;BME280;3626;42.656;23.312;2022-08-19T00:11:34;94316.69;;;20.61;67.96
7170;BME280;3626;42.656;23.312;2022-08-19T00:11:43;94322.13;;;20.59;67.93
7170;BME280;3626;42.656;23.312;2022-08-19T00:11:54;94312.44;;;20.60;67.90
7170;BME280;3626;42.656;23.312;2022-08-19T00:12:02;94318.72;;;20.59;67.94
7170;BME280;3626;42.656;23.312;2022-08-19T00:12:08;94310.31;;;20.57;67.97
7170;BME280;3626;42.656;23.312;2022-08-19T00:12:16;94319.75;;;20.58;67.94
7170;BME280;3626;42.656;23.312;2022-08-19T00:12:23;94325.00;;;20.58;67.93
7170;BME280;3626;42.656;23.312;2022-08-19T00:12:33;94318.97;;;20.57;67.92
7170;BME280;3626;42.656;23.312;2022-08-19T00:12:40;94315.56;;;20.57;67.88
7170;BME280;3626;42.656;23.312;2022-08-19T00:12:47;94318.19;;;20.57;67.75
7170;BME280;3626;42.656;23.312;2022-08-19T00:12:55;94325.25;;;20.56;67.72
7170;BME280;3626;42.656;23.312;2022-08-19T00:13:06;94320.00;;;20.56;67.61
7170;BME280;3626;42.656;23.312;2022-08-19T00:13:15;94315.56;;;20.57;67.62
7170;BME280;3626;42.656;23.312;2022-08-19T00:13:23;94315.56;;;20.57;67.59
7170;BME280;3626;42.656;23.312;2022-08-19T00:13:32;94313.16;;;20.55;67.56
7170;BME280;3626;42.656;23.312;2022-08-19T00:13:39;94313.94;;;20.56;67.50
7170;BME280;3626;42.656;23.312;2022-08-19T00:13:47;94312.34;;;20.55;67.62
7170;BME280;3626;42.656;23.312;2022-08-19T00:13:57;94319.19;;;20.56;67.74
7170;BME280;3626;42.656;23.312;2022-08-19T00:14:08;94324.69;;;20.54;67.68
7170;BME280;3626;42.656;23.312;2022-08-19T00:14:18;94317.59;;;20.55;67.64
7170;BME280;3626;42.656;23.312;2022-08-19T00:14:31;94322.06;;;20.54;67.64
7170;BME280;3626;42.656;23.312;2022-08-19T00:14:39;94316.00;;;20.54;67.80
7170;BME280;3626;42.656;23.312;2022-08-19T00:14:47;94321.25;;;20.54;67.68
7170;BME280;3626;42.656;23.312;2022-08-19T00:14:53;94318.63;;;20.54;67.77
7170;BME280;3626;42.656;23.312;2022-08-19T00:15:01;94321.25;;;20.54;67.72
7170;BME280;3626;42.656;23.312;2022-08-19T00:15:14;94322.28;;;20.53;67.77
7170;BME280;3626;42.656;23.312;2022-08-19T00:15:24;94330.16;;;20.53;67.83
7170;BME280;3626;42.656;23.312;2022-08-19T00:15:34;94320.69;;;20.52;67.83
7170;BME280;3626;42.656;23.312;2022-08-19T00:15:42;94322.50;;;20.51;67.74
7170;BME280;3626;42.656;23.312;2022-08-19T00:15:52;94321.72;;;20.51;67.75
7170;BME280;3626;42.656;23.312;2022-08-19T00:16:02;94321.97;;;20.49;68.02
7170;BME280;3626;42.656;23.312;2022-08-19T00:16:09;94328.78;;;20.50;67.94
7170;BME280;3626;42.656;23.312;2022-08-19T00:16:17;94326.97;;;20.51;67.98
7170;BME280;3626;42.656;23.312;2022-08-19T00:16:27;94321.72;;;20.51;68.10
7170;BME280;3626;42.656;23.312;2022-08-19T00:16:34;94320.94;;;20.50;68.04
7170;BME280;3626;42.656;23.312;2022-08-19T00:16:45;94327.22;;;20.49;68.07
7170;BME280;3626;42.656;23.312;2022-08-19T00:16:55;94326.97;;;20.51;68.21
7170;BME280;3626;42.656;23.312;2022-08-19T00:17:04;94330.38;;;20.51;68.30
7170;BME280;3626;42.656;23.312;2022-08-19T00:17:14;94328.56;;;20.52;68.42
7170;BME280;3626;42.656;23.312;2022-08-19T00:17:22;94328.78;;;20.50;68.14
7170;BME280;3626;42.656;23.312;2022-08-19T00:17:31;94327.75;;;20.51;68.32
7170;BME280;3626;42.656;23.312;2022-08-19T00:17:39;94326.16;;;20.50;68.31
7170;BME280;3626;42.656;23.312;2022-08-19T00:17:48;94328.78;;;20.50;68.39
7170;BME280;3626;42.656;23.312;2022-08-19T00:17:57;94333.00;;;20.51;68.46
7170;BME280;3626;42.656;23.312;2022-08-19T00:18:05;94326.16;;;20.50;68.35
7170;BME280;3626;42.656;23.312;2022-08-19T00:18:12;94329.59;;;20.51;68.44
7170;BME280;3626;42.656;23.312;2022-08-19T00:18:21;94333.25;;;20.50;68.41
7170;BME280;3626;42.656;23.312;2022-08-19T00:18:27;94326.41;;;20.49;68.32
7170;BME280;3626;42.656;23.312;2022-08-19T00:18:36;94326.41;;;20.49;68.31
7170;BME280;3626;42.656;23.312;2022-08-19T00:18:44;94326.41;;;20.49;68.30
7170;BME280;3626;42.656;23.312;2022-08-19T00:18:51;94338.72;;;20.48;68.33
7170;BME280;3626;42.656;23.312;2022-08-19T00:18:59;94326.59;;;20.47;68.31
7170;BME280;3626;42.656;23.312;2022-08-19T00:19:07;94327.44;;;20.47;68.36
7170;BME280;3626;42.656;23.312;2022-08-19T00:19:17;94331.06;;;20.46;68.29
7170;BME280;3626;42.656;23.312;2022-08-19T00:19:25;94326.59;;;20.47;68.20
7170;BME280;3626;42.656;23.312;2022-08-19T00:19:34;94337.91;;;20.47;68.24
7170;BME280;3626;42.656;23.312;2022-08-19T00:19:43;94328.44;;;20.46;68.23
7170;BME280;3626;42.656;23.312;2022-08-19T00:19:50;94324.81;;;20.47;68.24
7170;BME280;3626;42.656;23.312;2022-08-19T00:19:57;94332.66;;;20.47;68.37
7170;BME280;3626;42.656;23.312;2022-08-19T00:20:05;94332.66;;;20.47;68.21
7170;BME280;3626;42.656;23.312;2022-08-19T00:20:14;94327.63;;;20.46;68.24
7170;BME280;3626;42.656;23.312;2022-08-19T00:20:25;94334.47;;;20.47;68.39
7170;BME280;3626;42.656;23.312;2022-08-19T00:20:33;94332.88;;;20.46;68.25
7170;BME280;3626;42.656;23.312;2022-08-19T00:20:41;94335.50;;;20.46;68.19
7170;BME280;3626;42.656;23.312;2022-08-19T00:20:49;94335.28;;;20.47;68.13
7170;BME280;3626;42.656;23.312;2022-08-19T00:21:02;94329.72;;;20.44;68.26
7170;BME280;3626;42.656;23.312;2022-08-19T00:21:12;94331.53;;;20.43;68.59
7170;BME280;3626;42.656;23.312;2022-08-19T00:21:24;94338.59;;;20.43;68.61
7170;BME280;3626;42.656;23.312;2022-08-19T00:21:34;94335.16;;;20.42;68.79
7170;BME280;3626;42.656;23.312;2022-08-19T00:21:46;94335.16;;;20.42;68.79
7170;BME280;3626;42.656;23.312;2022-08-19T00:21:56;94333.59;;;20.41;68.93
7170;BME280;3626;42.656;23.312;2022-08-19T00:22:02;94344.66;;;20.43;68.92
7170;BME280;3626;42.656;23.312;2022-08-19T00:22:09;94334.16;;;20.43;68.93
7170;BME280;3626;42.656;23.312;2022-08-19T00:22:18;94336.78;;;20.43;69.17
7170;BME280;3626;42.656;23.312;2022-08-19T00:22:26;94333.34;;;20.43;69.14
7170;BME280;3626;42.656;23.312;2022-08-19T00:22:36;94341.44;;;20.41;69.22
7170;BME280;3626;42.656;23.312;2022-08-19T00:22:44;94333.59;;;20.41;69.24
7170;BME280;3626;42.656;23.312;2022-08-19T00:22:50;94338.81;;;20.41;69.27
7170;BME280;3626;42.656;23.312;2022-08-19T00:22:59;94338.81;;;20.41;69.54
7170;BME280;3626;42.656;23.312;2022-08-19T00:23:07;94339.06;;;20.40;69.51
7170;BME280;3626;42.656;23.312;2022-08-19T00:23:16;94340.66;;;20.41;69.62
7170;BME280;3626;42.656;23.312;2022-08-19T00:23:25;94335.41;;;20.41;69.62
7170;BME280;3626;42.656;23.312;2022-08-19T00:23:33;94335.41;;;20.41;69.64
7170;BME280;3626;42.656;23.312;2022-08-19T00:23:41;94332.00;;;20.40;69.66
7170;BME280;3626;42.656;23.312;2022-08-19T00:23:51;94335.41;;;20.41;69.58
7170;BME280;3626;42.656;23.312;2022-08-19T00:23:58;94335.41;;;20.41;69.65
7170;BME280;3626;42.656;23.312;2022-08-19T00:24:08;94339.63;;;20.42;69.62
7170;BME280;3626;42.656;23.312;2022-08-19T00:24:17;94338.81;;;20.41;69.47
7170;BME280;3626;42.656;23.312;2022-08-19T00:24:25;94339.63;;;20.42;69.53
7170;BME280;3626;42.656;23.312;2022-08-19T00:24:36;94344.66;;;20.43;69.41
7170;BME280;3626;42.656;23.312;2022-08-19T00:24:46;94342.25;;;20.42;69.48
7170;BME280;3626;42.656;23.312;2022-08-19T00:24:55;94338.03;;;20.41;69.54
7170;BME280;3626;42.656;23.312;2022-08-19T00:25:01;94340.66;;;20.41;69.48
7170;BME280;3626;42.656;23.312;2022-08-19T00:25:07;94338.81;;;20.41;69.53
7170;BME280;3626;42.656;23.312;2022-08-19T00:25:13;94342.50;;;20.40;69.48
7170;BME280;3626;42.656;23.312;2022-08-19T00:25:19;94342.50;;;20.40;69.39
7170;BME280;3626;42.656;23.312;2022-08-19T00:25:25;94342.50;;;20.40;69.47
7170;BME280;3626;42.656;23.312;2022-08-19T00:25:31;94339.88;;;20.40;69.39
7170;BME280;3626;42.656;23.312;2022-08-19T00:25:37;94341.69;;;20.40;69.31
7170;BME280;3626;42.656;23.312;2022-08-19T00:25:44;94338.03;;;20.41;69.29
7170;BME280;3626;42.656;23.312;2022-08-19T00:25:49;94339.88;;;20.40;68.95
7170;BME280;3626;42.656;23.312;2022-08-19T00:25:56;94343.28;;;20.41;69.17
7170;BME280;3626;42.656;23.312;2022-08-19T00:26:02;94340.66;;;20.41;69.29
7170;BME280;3626;42.656;23.312;2022-08-19T00:26:08;94345.09;;;20.40;69.25
7170;BME280;3626;42.656;23.312;2022-08-19T00:26:14;94337.25;;;20.40;69.20
7170;BME280;3626;42.656;23.312;2022-08-19T00:26:20;94342.50;;;20.40;69.24
7170;BME280;3626;42.656;23.312;2022-08-19T00:26:27;94339.06;;;20.40;69.16
7170;BME280;3626;42.656;23.312;2022-08-19T00:26:34;94334.84;;;20.39;69.18
7170;BME280;3626;42.656;23.312;2022-08-19T00:26:40;94340.91;;;20.39;69.25
7170;BME280;3626;42.656;23.312;2022-08-19T00:26:46;94340.91;;;20.39;69.35
7170;BME280;3626;42.656;23.312;2022-08-19T00:26:52;94341.91;;;20.38;69.23
7170;BME280;3626;42.656;23.312;2022-08-19T00:27:00;94335.66;;;20.39;69.23
7170;BME280;3626;42.656;23.312;2022-08-19T00:27:07;94334.84;;;20.39;69.34
7170;BME280;3626;42.656;23.312;2022-08-19T00:27:13;94338.50;;;20.38;69.19
7170;BME280;3626;42.656;23.312;2022-08-19T00:27:19;94338.50;;;20.38;69.21
7170;BME280;3626;42.656;23.312;2022-08-19T00:27:25;94339.06;;;20.40;69.31
7170;BME280;3626;42.656;23.312;2022-08-19T00:27:30;94339.28;;;20.38;69.06
7170;BME280;3626;42.656;23.312;2022-08-19T00:27:36;94334.84;;;20.39;69.30
7170;BME280;3626;42.656;23.312;2022-08-19T00:27:42;94336.66;;;20.38;69.34
7170;BME280;3626;42.656;23.312;2022-08-19T00:27:48;94331.66;;;20.37;69.23
7170;BME280;3626;42.656;23.312;2022-08-19T00:27:54;94342.16;;;20.37;69.27
7170;BME280;3626;42.656;23.312;2022-08-19T00:27:59;94337.69;;;20.37;69.19
7170;BME280;3626;42.656;23.312;2022-08-19T00:28:05;94336.13;;;20.36;69.28
7170;BME280;3626;42.656;23.312;2022-08-19T00:28:11;94336.13;;;20.36;69.37
7170;BME280;3626;42.656;23.312;2022-08-19T00:28:18;94332.72;;;20.36;69.37
7170;BME280;3626;42.656;23.312;2022-08-19T00:28:25;94338.16;;;20.34;69.31
7170;BME280;3626;42.656;23.312;2022-08-19T00:28:31;94331.13;;;20.35;69.53
7170;BME280;3626;42.656;23.312;2022-08-19T00:28:38;94338.16;;;20.34;69.36
7170;BME280;3626;42.656;23.312;2022-08-19T00:28:44;94337.38;;;20.34;69.57
7170;BME280;3626;42.656;23.312;2022-08-19T00:28:50;94336.38;;;20.35;69.61
7170;BME280;3626;42.656;23.312;2022-08-19T00:28:56;94332.91;;;20.34;69.51
7170;BME280;3626;42.656;23.312;2022-08-19T00:29:02;94331.13;;;20.35;69.60
7170;BME280;3626;42.656;23.312;2022-08-19T00:29:10;94336.13;;;20.36;69.71
7170;BME280;3626;42.656;23.312;2022-08-19T00:29:18;94335.53;;;20.34;69.78
7170;BME280;3626;42.656;23.312;2022-08-19T00:29:24;94329.28;;;20.35;69.82
7170;BME280;3626;42.656;23.312;2022-08-19T00:29:30;94328.50;;;20.35;69.55
7170;BME280;3626;42.656;23.312;2022-08-19T00:29:36;94332.91;;;20.34;69.78
7170;BME280;3626;42.656;23.312;2022-08-19T00:29:42;94338.16;;;20.34;69.63
7170;BME280;3626;42.656;23.312;2022-08-19T00:29:49;94337.16;;;20.35;69.62
7170;BME280;3626;42.656;23.312;2022-08-19T00:29:55;94340.56;;;20.36;69.64
7170;BME280;3626;42.656;23.312;2022-08-19T00:30:04;94340.56;;;20.36;69.60
7170;BME280;3626;42.656;23.312;2022-08-19T00:30:11;94329.28;;;20.35;69.58
7170;BME280;3626;42.656;23.312;2022-08-19T00:30:17;94334.53;;;20.35;69.53
7170;BME280;3626;42.656;23.312;2022-08-19T00:30:23;94333.75;;;20.35;69.43
7170;BME280;3626;42.656;23.312;2022-08-19T00:30:28;94334.53;;;20.35;69.54
7170;BME280;3626;42.656;23.312;2022-08-19T00:30:34;94344.78;;;20.37;69.51
7170;BME280;3626;42.656;23.312;2022-08-19T00:30:40;94343.41;;;20.34;69.43
7170;BME280;3626;42.656;23.312;2022-08-19T00:30:46;94331.13;;;20.35;69.52
7170;BME280;3626;42.656;23.312;2022-08-19T00:30:52;94335.53;;;20.34;69.51
7170;BME280;3626;42.656;23.312;2022-08-19T00:30:58;94334.75;;;20.34;69.47
7170;BME280;3626;42.656;23.312;2022-08-19T00:31:05;94341.03;;;20.33;69.45
7170;BME280;3626;42.656;23.312;2022-08-19T00:31:12;94337.63;;;20.32;69.55
7170;BME280;3626;42.656;23.312;2022-08-19T00:31:18;94340.22;;;20.32;69.54
7170;BME280;3626;42.656;23.312;2022-08-19T00:31:24;94338.66;;;20.31;69.43
7170;BME280;3626;42.656;23.312;2022-08-19T00:31:31;94341.28;;;20.31;69.52
7170;BME280;3626;42.656;23.312;2022-08-19T00:31:36;94336.81;;;20.32;69.56
7170;BME280;3626;42.656;23.312;2022-08-19T00:31:42;94334.19;;;20.32;69.55
7170;BME280;3626;42.656;23.312;2022-08-19T00:31:49;94335.00;;;20.32;69.33
7170;BME280;3626;42.656;23.312;2022-08-19T00:31:55;94336.81;;;20.32;69.43
7170;BME280;3626;42.656;23.312;2022-08-19T00:32:03;94334.19;;;20.32;69.40
7170;BME280;3626;42.656;23.312;2022-08-19T00:32:09;94336.03;;;20.31;69.39
7170;BME280;3626;42.656;23.312;2022-08-19T00:32:16;94338.66;;;20.31;69.36
7170;BME280;3626;42.656;23.312;2022-08-19T00:32:22;94335.00;;;20.32;69.49
7170;BME280;3626;42.656;23.312;2022-08-19T00:32:29;94335.00;;;20.32;69.34
7170;BME280;3626;42.656;23.312;2022-08-19T00:32:36;94343.66;;;20.33;69.30
7170;BME280;3626;42.656;23.312;2022-08-19T00:32:42;94339.44;;;20.32;69.38
7170;BME280;3626;42.656;23.312;2022-08-19T00:32:47;94336.81;;;20.32;69.38
7170;BME280;3626;42.656;23.312;2022-08-19T00:32:53;94343.88;;;20.31;69.39
7170;BME280;3626;42.656;23.312;2022-08-19T00:33:00;94334.19;;;20.32;69.50
7170;BME280;3626;42.656;23.312;2022-08-19T00:33:06;94336.81;;;20.32;69.43
7170;BME280;3626;42.656;23.312;2022-08-19T00:33:12;94339.44;;;20.32;69.44
7170;BME280;3626;42.656;23.312;2022-08-19T00:33:19;94335.00;;;20.32;69.72
7170;BME280;3626;42.656;23.312;2022-08-19T00:33:25;94334.19;;;20.32;69.54
7170;BME280;3626;42.656;23.312;2022-08-19T00:33:31;94340.22;;;20.32;69.69
7170;BME280;3626;42.656;23.312;2022-08-19T00:33:37;94341.03;;;20.33;69.54
7170;BME280;3626;42.656;23.312;2022-08-19T00:33:43;94341.81;;;20.33;69.64
7170;BME280;3626;42.656;23.312;2022-08-19T00:33:49;94339.19;;;20.33;69.54
7170;BME280;3626;42.656;23.312;2022-08-19T00:33:55;94332.38;;;20.32;69.60
7170;BME280;3626;42.656;23.312;2022-08-19T00:34:01;94334.19;;;20.32;69.59
7170;BME280;3626;42.656;23.312;2022-08-19T00:34:08;94344.69;;;20.32;69.64
7170;BME280;3626;42.656;23.312;2022-08-19T00:34:14;94337.03;;;20.30;69.65
7170;BME280;3626;42.656;23.312;2022-08-19T00:34:20;94333.63;;;20.30;69.73
7170;BME280;3626;42.656;23.312;2022-08-19T00:34:27;94332.03;;;20.29;69.77
7170;BME280;3626;42.656;23.312;2022-08-19T00:34:33;94332.81;;;20.29;69.74
7170;BME280;3626;42.656;23.312;2022-08-19T00:34:40;94335.44;;;20.29;69.77
7170;BME280;3626;42.656;23.312;2022-08-19T00:34:45;94335.44;;;20.29;69.72
7170;BME280;3626;42.656;23.312;2022-08-19T00:34:51;94332.81;;;20.29;69.71
7170;BME280;3626;42.656;23.312;2022-08-19T00:34:58;94338.06;;;20.29;69.77
7170;BME280;3626;42.656;23.312;2022-08-19T00:35:04;94335.44;;;20.29;69.80
7170;BME280;3626;42.656;23.312;2022-08-19T00:35:10;94331.00;;;20.30;69.74
7170;BME280;3626;42.656;23.312;2022-08-19T00:35:16;94330.22;;;20.29;69.66
7170;BME280;3626;42.656;23.312;2022-08-19T00:35:24;94333.63;;;20.30;69.83
7170;BME280;3626;42.656;23.312;2022-08-19T00:35:30;94336.25;;;20.30;69.82
7170;BME280;3626;42.656;23.312;2022-08-19T00:35:37;94333.88;;;20.28;69.69
7170;BME280;3626;42.656;23.312;2022-08-19T00:35:43;94333.06;;;20.28;69.85
7170;BME280;3626;42.656;23.312;2022-08-19T00:35:49;94329.66;;;20.27;69.86
7170;BME280;3626;42.656;23.312;2022-08-19T00:35:55;94331.50;;;20.27;69.80
7170;BME280;3626;42.656;23.312;2022-08-19T00:36:05;94332.28;;;20.27;69.94
7170;BME280;3626;42.656;23.312;2022-08-19T00:36:11;94328.63;;;20.28;69.84
7170;BME280;3626;42.656;23.312;2022-08-19T00:36:17;94330.22;;;20.29;69.87
7170;BME280;3626;42.656;23.312;2022-08-19T00:36:23;94326.78;;;20.29;69.76
7170;BME280;3626;42.656;23.312;2022-08-19T00:36:29;94324.19;;;20.29;69.82
7170;BME280;3626;42.656;23.312;2022-08-19T00:36:35;94326.78;;;20.29;69.87
7170;BME280;3626;42.656;23.312;2022-08-19T00:36:42;94334.66;;;20.29;69.84
7170;BME280;3626;42.656;23.312;2022-08-19T00:36:48;94331.25;;;20.28;69.60
7170;BME280;3626;42.656;23.312;2022-08-19T00:36:56;94327.84;;;20.28;69.81
7170;BME280;3626;42.656;23.312;2022-08-19T00:37:02;94326.78;;;20.29;69.79
7170;BME280;3626;42.656;23.312;2022-08-19T00:37:08;94334.66;;;20.29;69.85
7170;BME280;3626;42.656;23.312;2022-08-19T00:37:13;94327.59;;;20.29;69.64
7170;BME280;3626;42.656;23.312;2022-08-19T00:37:19;94335.44;;;20.29;69.63
7170;BME280;3626;42.656;23.312;2022-08-19T00:37:28;94330.22;;;20.29;69.69
7170;BME280;3626;42.656;23.312;2022-08-19T00:37:34;94330.22;;;20.29;69.72
7170;BME280;3626;42.656;23.312;2022-08-19T00:37:40;94332.81;;;20.29;69.77
7170;BME280;3626;42.656;23.312;2022-08-19T00:37:48;94329.41;;;20.29;69.80
7170;BME280;3626;42.656;23.312;2022-08-19T00:37:55;94326.78;;;20.29;69.85
7170;BME280;3626;42.656;23.312;2022-08-19T00:38:01;94327.84;;;20.28;70.03
7170;BME280;3626;42.656;23.312;2022-08-19T00:38:07;94330.44;;;20.28;70.16
7170;BME280;3626;42.656;23.312;2022-08-19T00:38:13;94332.28;;;20.27;70.14
7170;BME280;3626;42.656;23.312;2022-08-19T00:38:18;94329.41;;;20.29;70.15
7170;BME280;3626;42.656;23.312;2022-08-19T00:38:28;94333.88;;;20.28;70.20
7170;BME280;3626;42.656;23.312;2022-08-19T00:38:34;94324.41;;;20.27;70.28
7170;BME280;3626;42.656;23.312;2022-08-19T00:38:41;94332.28;;;20.27;70.21
7170;BME280;3626;42.656;23.312;2022-08-19T00:38:48;94332.28;;;20.27;70.27
7170;BME280;3626;42.656;23.312;2022-08-19T00:38:54;94332.28;;;20.27;70.24
7170;BME280;3626;42.656;23.312;2022-08-19T00:39:00;94335.91;;;20.26;70.26
7170;BME280;3626;42.656;23.312;2022-08-19T00:39:07;94329.09;;;20.25;70.31
7170;BME280;3626;42.656;23.312;2022-08-19T00:39:14;94327.25;;;20.26;70.23
7170;BME280;3626;42.656;23.312;2022-08-19T00:39:20;94332.50;;;20.26;70.37
7170;BME280;3626;42.656;23.312;2022-08-19T00:39:26;94332.50;;;20.26;70.33
7170;BME280;3626;42.656;23.312;2022-08-19T00:39:32;94331.69;;;20.25;70.31
7170;BME280;3626;42.656;23.312;2022-08-19T00:39:38;94329.09;;;20.25;70.29
7170;BME280;3626;42.656;23.312;2022-08-19T00:39:43;94330.91;;;20.25;70.29
7170;BME280;3626;42.656;23.312;2022-08-19T00:39:49;94333.53;;;20.25;70.38